sensor_id;sensor_type;location;lat;lon;timestamp;pressure;altitude;pressure_sealevel;temperature;humidity
6851;BME280;3464;42.728;23.296;2024-03-25T00:02:26;94022.94;;;19.06;47.88
6851;BME280;3464;42.728;23.296;2024-03-25T00:04:52;94022.06;;;18.57;46.71
6851;BME280;3464;42.728;23.296;2024-03-25T00:07:19;94033.44;;;17.96;48.34
6851;BME280;3464;42.728;23.296;2024-03-25T00:09:46;94018.05;;;18.20;46.83
6851;BME280;3464;42.728;23.296;2024-03-25T00:12:12;94003.05;;;18.65;45.43
6851;BME280;3464;42.728;23.296;2024-03-25T00:14:40;94008.57;;;19.23;43.96
6851;BME280;3464;42.728;23.296;2024-03-25T00:17:06;94003.27;;;20.19;42.35
6851;BME280;3464;42.728;23.296;2024-03-25T00:19:33;93995.84;;;19.50;42.86
6851;BME280;3464;42.728;23.296;2024-03-25T00:21:59;93989.70;;;19.37;41.99
6851;BME280;3464;42.728;23.296;2024-03-25T00:24:26;93992.65;;;18.08;44.88
6851;BME280;3464;42.728;23.296;2024-03-25T00:26:52;93989.30;;;18.68;44.08
6851;BME280;3464;42.728;23.296;2024-03-25T00:29:19;93980.13;;;18.04;44.37
6851;BME280;3464;42.728;23.296;2024-03-25T00:31:46;93980.36;;;17.21;46.07
6851;BME280;3464;42.728;23.296;2024-03-25T00:34:13;93977.06;;;17.07;46.09
6851;BME280;3464;42.728;23.296;2024-03-25T00:36:39;93972.69;;;18.50;44.27
6851;BME280;3464;42.728;23.296;2024-03-25T00:39:06;93974.83;;;17.66;45.04
6851;BME280;3464;42.728;23.296;2024-03-25T00:41:33;93973.23;;;19.70;42.23
6851;BME280;3464;42.728;23.296;2024-03-25T00:43:59;93977.70;;;17.79;45.09
6851;BME280;3464;42.728;23.296;2024-03-25T00:46:26;93984.61;;;19.17;43.90
6851;BME280;3464;42.728;23.296;2024-03-25T00:48:52;93981.63;;;19.81;42.02
6851;BME280;3464;42.728;23.296;2024-03-25T00:51:19;93973.05;;;19.19;42.53
6851;BME280;3464;42.728;23.296;2024-03-25T00:53:46;93972.68;;;19.73;41.31
6851;BME280;3464;42.728;23.296;2024-03-25T00:56:13;93977.44;;;19.71;41.08
6851;BME280;3464;42.728;23.296;2024-03-25T00:58:39;93963.34;;;20.17;40.77
6851;BME280;3464;42.728;23.296;2024-03-25T01:01:06;93953.39;;;20.20;40.92
6851;BME280;3464;42.728;23.296;2024-03-25T01:03:33;93955.17;;;18.42;42.58
6851;BME280;3464;42.728;23.296;2024-03-25T01:06:00;93954.53;;;19.71;41.60
6851;BME280;3464;42.728;23.296;2024-03-25T01:08:26;93950.50;;;19.19;42.20
6851;BME280;3464;42.728;23.296;2024-03-25T01:10:53;93939.27;;;19.69;41.74
6851;BME280;3464;42.728;23.296;2024-03-25T01:13:19;93934.83;;;19.27;41.63
6851;BME280;3464;42.728;23.296;2024-03-25T01:15:46;93923.93;;;20.96;40.26
6851;BME280;3464;42.728;23.296;2024-03-25T01:18:13;93923.31;;;20.42;40.61
6851;BME280;3464;42.728;23.296;2024-03-25T01:20:39;93925.98;;;20.48;40.82
6851;BME280;3464;42.728;23.296;2024-03-25T01:23:06;93922.88;;;19.73;41.31
6851;BME280;3464;42.728;23.296;2024-03-25T01:25:32;93929.90;;;18.57;43.43
6851;BME280;3464;42.728;23.296;2024-03-25T01:27:59;93941.34;;;16.76;45.98
6851;BME280;3464;42.728;23.296;2024-03-25T01:30:25;93930.73;;;18.18;44.90
6851;BME280;3464;42.728;23.296;2024-03-25T01:32:52;93934.42;;;19.98;41.96
6851;BME280;3464;42.728;23.296;2024-03-25T01:35:19;93938.56;;;21.25;39.76
6851;BME280;3464;42.728;23.296;2024-03-25T01:37:46;93945.73;;;20.53;40.44
6851;BME280;3464;42.728;23.296;2024-03-25T01:40:12;93941.78;;;20.80;39.60
6851;BME280;3464;42.728;23.296;2024-03-25T01:42:39;93965.20;;;20.39;40.83
6851;BME280;3464;42.728;23.296;2024-03-25T01:45:06;93966.75;;;19.45;42.25
6851;BME280;3464;42.728;23.296;2024-03-25T01:47:32;93969.16;;;18.62;43.48
6851;BME280;3464;42.728;23.296;2024-03-25T01:49:59;93972.30;;;17.66;45.03
6851;BME280;3464;42.728;23.296;2024-03-25T01:52:26;93961.28;;;17.87;45.06
6851;BME280;3464;42.728;23.296;2024-03-25T01:54:52;93958.93;;;17.92;44.42
6851;BME280;3464;42.728;23.296;2024-03-25T01:57:19;93960.09;;;18.38;44.19
6851;BME280;3464;42.728;23.296;2024-03-25T01:59:45;93971.84;;;16.88;45.89
6851;BME280;3464;42.728;23.296;2024-03-25T02:02:12;93979.22;;;17.73;45.24
6851;BME280;3464;42.728;23.296;2024-03-25T02:04:39;93982.58;;;16.23;47.16
6851;BME280;3464;42.728;23.296;2024-03-25T02:07:08;93980.95;;;16.70;46.73
6851;BME280;3464;42.728;23.296;2024-03-25T02:09:35;93981.00;;;16.19;47.11
6851;BME280;3464;42.728;23.296;2024-03-25T02:12:02;93981.78;;;16.82;46.16
6851;BME280;3464;42.728;23.296;2024-03-25T02:14:29;93969.80;;;17.43;45.07
6851;BME280;3464;42.728;23.296;2024-03-25T02:16:56;93983.38;;;16.85;46.94
6851;BME280;3464;42.728;23.296;2024-03-25T02:19:22;93964.92;;;17.14;45.91
6851;BME280;3464;42.728;23.296;2024-03-25T02:21:50;93974.87;;;16.00;47.26
6851;BME280;3464;42.728;23.296;2024-03-25T02:24:16;93970.23;;;16.51;46.02
6851;BME280;3464;42.728;23.296;2024-03-25T02:26:43;93966.36;;;16.27;47.51
6851;BME280;3464;42.728;23.296;2024-03-25T02:29:09;93969.42;;;15.31;49.06
6851;BME280;3464;42.728;23.296;2024-03-25T02:31:36;93976.12;;;15.33;47.93
6851;BME280;3464;42.728;23.296;2024-03-25T02:34:02;93972.53;;;15.55;48.23
6851;BME280;3464;42.728;23.296;2024-03-25T02:36:29;93979.87;;;16.15;47.52
6851;BME280;3464;42.728;23.296;2024-03-25T02:38:56;93980.61;;;16.19;47.26
6851;BME280;3464;42.728;23.296;2024-03-25T02:41:22;93978.73;;;15.59;47.51
6851;BME280;3464;42.728;23.296;2024-03-25T02:43:49;93974.16;;;16.47;46.32
6851;BME280;3464;42.728;23.296;2024-03-25T02:46:15;93974.41;;;16.99;45.73
6851;BME280;3464;42.728;23.296;2024-03-25T02:48:42;93971.89;;;16.01;47.05
6851;BME280;3464;42.728;23.296;2024-03-25T02:51:08;93982.58;;;15.71;47.85
6851;BME280;3464;42.728;23.296;2024-03-25T02:53:35;93991.26;;;15.35;48.00
6851;BME280;3464;42.728;23.296;2024-03-25T02:56:01;93996.81;;;15.62;47.04
6851;BME280;3464;42.728;23.296;2024-03-25T02:58:29;93988.30;;;16.90;45.90
6851;BME280;3464;42.728;23.296;2024-03-25T03:00:55;93990.83;;;15.36;48.36
6851;BME280;3464;42.728;23.296;2024-03-25T03:03:22;93997.95;;;15.79;46.62
6851;BME280;3464;42.728;23.296;2024-03-25T03:05:48;94002.98;;;15.11;48.11
6851;BME280;3464;42.728;23.296;2024-03-25T03:08:15;93994.76;;;15.73;48.48
6851;BME280;3464;42.728;23.296;2024-03-25T03:10:41;93993.57;;;15.57;47.82
6851;BME280;3464;42.728;23.296;2024-03-25T03:13:08;93995.77;;;14.83;48.76
6851;BME280;3464;42.728;23.296;2024-03-25T03:15:35;93996.77;;;14.46;49.54
6851;BME280;3464;42.728;23.296;2024-03-25T03:18:01;93989.30;;;15.73;47.53
6851;BME280;3464;42.728;23.296;2024-03-25T03:20:28;93992.20;;;16.63;45.76
6851;BME280;3464;42.728;23.296;2024-03-25T03:22:54;93989.77;;;14.85;47.81
6851;BME280;3464;42.728;23.296;2024-03-25T03:25:21;93991.47;;;15.71;47.02
6851;BME280;3464;42.728;23.296;2024-03-25T03:27:47;93997.57;;;17.36;44.40
6851;BME280;3464;42.728;23.296;2024-03-25T03:30:14;94007.54;;;17.31;45.00
6851;BME280;3464;42.728;23.296;2024-03-25T03:32:40;94026.58;;;16.36;47.18
6851;BME280;3464;42.728;23.296;2024-03-25T03:35:07;94033.18;;;16.16;46.58
6851;BME280;3464;42.728;23.296;2024-03-25T03:37:34;94023.88;;;17.13;45.65
6851;BME280;3464;42.728;23.296;2024-03-25T03:40:01;94028.53;;;16.66;45.65
6851;BME280;3464;42.728;23.296;2024-03-25T03:42:27;94022.53;;;16.42;45.53
6851;BME280;3464;42.728;23.296;2024-03-25T03:44:54;94033.94;;;16.06;45.80
6851;BME280;3464;42.728;23.296;2024-03-25T03:47:20;94048.64;;;16.34;46.10
6851;BME280;3464;42.728;23.296;2024-03-25T03:49:47;94040.91;;;16.37;45.52
6851;BME280;3464;42.728;23.296;2024-03-25T03:52:13;94036.95;;;15.05;47.83
6851;BME280;3464;42.728;23.296;2024-03-25T03:54:41;94046.98;;;14.63;49.05
6851;BME280;3464;42.728;23.296;2024-03-25T03:57:07;94039.65;;;14.37;49.23
6851;BME280;3464;42.728;23.296;2024-03-25T03:59:34;94032.04;;;15.00;48.08
6851;BME280;3464;42.728;23.296;2024-03-25T04:02:00;94022.31;;;17.33;45.24
6851;BME280;3464;42.728;23.296;2024-03-25T04:04:27;94040.89;;;18.01;43.47
6851;BME280;3464;42.728;23.296;2024-03-25T04:06:53;94052.69;;;17.25;43.80
6851;BME280;3464;42.728;23.296;2024-03-25T04:09:20;94061.27;;;17.57;43.57
6851;BME280;3464;42.728;23.296;2024-03-25T04:11:46;94073.13;;;16.36;44.69
6851;BME280;3464;42.728;23.296;2024-03-25T04:14:13;94073.18;;;16.35;44.68
6851;BME280;3464;42.728;23.296;2024-03-25T04:16:39;94073.28;;;16.05;45.70
6851;BME280;3464;42.728;23.296;2024-03-25T04:19:06;94062.96;;;16.99;44.11
6851;BME280;3464;42.728;23.296;2024-03-25T04:21:32;94063.06;;;17.87;42.53
6851;BME280;3464;42.728;23.296;2024-03-25T04:23:59;94082.99;;;18.02;42.23
6851;BME280;3464;42.728;23.296;2024-03-25T04:26:26;94091.85;;;16.33;45.37
6851;BME280;3464;42.728;23.296;2024-03-25T04:28:54;94091.23;;;15.12;47.09
6851;BME280;3464;42.728;23.296;2024-03-25T04:31:21;94085.64;;;15.88;46.34
6851;BME280;3464;42.728;23.296;2024-03-25T04:33:48;94087.19;;;16.07;46.36
6851;BME280;3464;42.728;23.296;2024-03-25T04:36:16;94088.02;;;16.97;44.71
6851;BME280;3464;42.728;23.296;2024-03-25T04:38:43;94104.08;;;16.73;44.76
6851;BME280;3464;42.728;23.296;2024-03-25T04:41:09;94110.11;;;18.01;41.99
6851;BME280;3464;42.728;23.296;2024-03-25T04:43:36;94117.72;;;17.67;43.40
6851;BME280;3464;42.728;23.296;2024-03-25T04:46:02;94137.27;;;17.78;43.56
6851;BME280;3464;42.728;23.296;2024-03-25T04:48:29;94137.17;;;17.46;43.74
6851;BME280;3464;42.728;23.296;2024-03-25T04:50:55;94140.66;;;17.42;43.36
6851;BME280;3464;42.728;23.296;2024-03-25T04:53:22;94137.11;;;15.19;47.00
6851;BME280;3464;42.728;23.296;2024-03-25T04:55:48;94135.05;;;17.80;43.82
6851;BME280;3464;42.728;23.296;2024-03-25T04:58:16;94140.69;;;16.68;44.78
6851;BME280;3464;42.728;23.296;2024-03-25T05:00:42;94139.72;;;17.46;44.04
6851;BME280;3464;42.728;23.296;2024-03-25T05:03:09;94136.38;;;17.68;43.33
6851;BME280;3464;42.728;23.296;2024-03-25T05:05:35;94129.27;;;17.41;43.63
6851;BME280;3464;42.728;23.296;2024-03-25T05:08:02;94134.75;;;15.73;45.71
6851;BME280;3464;42.728;23.296;2024-03-25T05:10:31;94133.88;;;16.44;44.96
6851;BME280;3464;42.728;23.296;2024-03-25T05:13:00;94132.85;;;17.83;42.43
6851;BME280;3464;42.728;23.296;2024-03-25T05:15:28;94125.72;;;16.98;43.69
6851;BME280;3464;42.728;23.296;2024-03-25T05:17:55;94137.27;;;16.94;43.90
6851;BME280;3464;42.728;23.296;2024-03-25T05:20:22;94132.36;;;17.01;44.03
6851;BME280;3464;42.728;23.296;2024-03-25T05:22:49;94137.23;;;16.82;43.35
6851;BME280;3464;42.728;23.296;2024-03-25T05:25:16;94134.23;;;17.80;42.94
6851;BME280;3464;42.728;23.296;2024-03-25T05:27:44;94141.41;;;17.46;42.59
6851;BME280;3464;42.728;23.296;2024-03-25T05:30:19;94135.20;;;18.21;41.80
6851;BME280;3464;42.728;23.296;2024-03-25T05:33:02;94148.38;;;16.91;43.73
6851;BME280;3464;42.728;23.296;2024-03-25T05:35:37;94151.91;;;17.12;43.50
6851;BME280;3464;42.728;23.296;2024-03-25T05:38:10;94159.25;;;17.92;41.94
6851;BME280;3464;42.728;23.296;2024-03-25T05:43:49;94162.36;;;17.64;41.45
6851;BME280;3464;42.728;23.296;2024-03-25T05:49:18;94162.27;;;24.46;32.74
6851;BME280;3464;42.728;23.296;2024-03-25T05:51:50;94160.25;;;26.62;30.92
6851;BME280;3464;42.728;23.296;2024-03-25T05:54:17;94154.30;;;29.82;27.82
6851;BME280;3464;42.728;23.296;2024-03-25T05:56:44;94156.97;;;30.51;26.46
6851;BME280;3464;42.728;23.296;2024-03-25T05:59:13;94162.70;;;28.25;27.73
6851;BME280;3464;42.728;23.296;2024-03-25T06:01:49;94165.38;;;29.11;26.74
6851;BME280;3464;42.728;23.296;2024-03-25T06:04:16;94168.02;;;26.43;29.18
6851;BME280;3464;42.728;23.296;2024-03-25T06:06:43;94176.70;;;23.36;31.54
6851;BME280;3464;42.728;23.296;2024-03-25T06:09:10;94172.98;;;27.93;27.76
6851;BME280;3464;42.728;23.296;2024-03-25T06:11:37;94193.41;;;26.19;28.90
6851;BME280;3464;42.728;23.296;2024-03-25T06:14:03;94187.13;;;28.60;27.43
6851;BME280;3464;42.728;23.296;2024-03-25T06:16:30;94191.89;;;30.68;24.69
6851;BME280;3464;42.728;23.296;2024-03-25T06:18:57;94193.25;;;32.66;22.81
6851;BME280;3464;42.728;23.296;2024-03-25T06:21:23;94200.62;;;31.21;23.44
6851;BME280;3464;42.728;23.296;2024-03-25T06:23:50;94198.31;;;34.61;21.92
6851;BME280;3464;42.728;23.296;2024-03-25T06:26:19;94193.95;;;30.03;24.26
6851;BME280;3464;42.728;23.296;2024-03-25T06:28:50;94202.88;;;28.74;25.66
6851;BME280;3464;42.728;23.296;2024-03-25T06:31:19;94210.91;;;28.54;26.44
6851;BME280;3464;42.728;23.296;2024-03-25T06:33:54;94214.14;;;27.84;27.02
6851;BME280;3464;42.728;23.296;2024-03-25T06:36:27;94218.59;;;25.32;29.35
6851;BME280;3464;42.728;23.296;2024-03-25T06:38:54;94223.58;;;25.54;29.39
6851;BME280;3464;42.728;23.296;2024-03-25T06:41:24;94227.20;;;22.98;31.73
6851;BME280;3464;42.728;23.296;2024-03-25T06:43:59;94227.57;;;22.53;33.19
6851;BME280;3464;42.728;23.296;2024-03-25T06:46:42;94239.13;;;21.46;33.62
6851;BME280;3464;42.728;23.296;2024-03-25T06:49:24;94236.26;;;26.64;28.68
6851;BME280;3464;42.728;23.296;2024-03-25T06:51:54;94232.83;;;29.73;25.03
6851;BME280;3464;42.728;23.296;2024-03-25T06:57:38;94234.41;;;33.66;21.46
6851;BME280;3464;42.728;23.296;2024-03-25T07:03:21;94240.95;;;37.12;19.28
6851;BME280;3464;42.728;23.296;2024-03-25T07:05:48;94241.10;;;34.73;20.45
6851;BME280;3464;42.728;23.296;2024-03-25T07:08:25;94240.27;;;30.64;24.21
6851;BME280;3464;42.728;23.296;2024-03-25T07:10:54;94243.89;;;27.96;26.38
6851;BME280;3464;42.728;23.296;2024-03-25T07:13:37;94257.83;;;24.41;29.88
6851;BME280;3464;42.728;23.296;2024-03-25T07:16:11;94263.61;;;23.20;31.06
6851;BME280;3464;42.728;23.296;2024-03-25T07:18:48;94260.45;;;24.19;30.45
6851;BME280;3464;42.728;23.296;2024-03-25T07:21:29;94267.05;;;22.98;31.65
6851;BME280;3464;42.728;23.296;2024-03-25T07:27:29;94265.97;;;22.55;31.55
6851;BME280;3464;42.728;23.296;2024-03-25T07:32:47;94274.38;;;22.65;31.91
6851;BME280;3464;42.728;23.296;2024-03-25T07:35:18;94280.44;;;21.22;33.55
6851;BME280;3464;42.728;23.296;2024-03-25T07:37:44;94271.30;;;20.99;34.07
6851;BME280;3464;42.728;23.296;2024-03-25T07:40:11;94262.23;;;23.22;31.63
6851;BME280;3464;42.728;23.296;2024-03-25T07:42:38;94288.59;;;20.93;33.25
6851;BME280;3464;42.728;23.296;2024-03-25T07:45:05;94276.30;;;19.38;35.79
6851;BME280;3464;42.728;23.296;2024-03-25T07:47:33;94280.28;;;20.61;34.74
6851;BME280;3464;42.728;23.296;2024-03-25T07:50:00;94282.44;;;19.33;35.73
6851;BME280;3464;42.728;23.296;2024-03-25T07:52:28;94289.97;;;21.62;34.07
6851;BME280;3464;42.728;23.296;2024-03-25T07:54:55;94285.88;;;19.73;36.37
6851;BME280;3464;42.728;23.296;2024-03-25T07:57:21;94281.48;;;20.90;35.53
6851;BME280;3464;42.728;23.296;2024-03-25T07:59:48;94285.13;;;21.48;34.58
6851;BME280;3464;42.728;23.296;2024-03-25T08:02:15;94282.71;;;20.54;34.53
6851;BME280;3464;42.728;23.296;2024-03-25T08:04:41;94285.92;;;20.22;35.60
6851;BME280;3464;42.728;23.296;2024-03-25T08:07:08;94291.05;;;20.49;35.49
6851;BME280;3464;42.728;23.296;2024-03-25T08:09:34;94288.41;;;21.93;32.97
6851;BME280;3464;42.728;23.296;2024-03-25T08:12:01;94289.05;;;20.47;34.80
6851;BME280;3464;42.728;23.296;2024-03-25T08:14:27;94284.36;;;21.11;34.00
6851;BME280;3464;42.728;23.296;2024-03-25T08:16:54;94292.63;;;21.34;33.16
6851;BME280;3464;42.728;23.296;2024-03-25T08:19:20;94298.58;;;22.20;33.24
6851;BME280;3464;42.728;23.296;2024-03-25T08:21:47;94304.16;;;20.61;34.24
6851;BME280;3464;42.728;23.296;2024-03-25T08:24:14;94310.09;;;20.99;34.39
6851;BME280;3464;42.728;23.296;2024-03-25T08:26:41;94309.54;;;21.37;34.10
6851;BME280;3464;42.728;23.296;2024-03-25T08:29:08;94307.91;;;20.53;34.66
6851;BME280;3464;42.728;23.296;2024-03-25T08:31:34;94311.84;;;20.42;34.66
6851;BME280;3464;42.728;23.296;2024-03-25T08:34:01;94310.19;;;20.12;35.67
6851;BME280;3464;42.728;23.296;2024-03-25T08:36:27;94315.02;;;20.56;34.67
6851;BME280;3464;42.728;23.296;2024-03-25T08:38:54;94314.30;;;22.54;32.53
6851;BME280;3464;42.728;23.296;2024-03-25T08:41:21;94318.83;;;21.83;32.30
6851;BME280;3464;42.728;23.296;2024-03-25T08:43:47;94324.55;;;20.88;33.38
6851;BME280;3464;42.728;23.296;2024-03-25T08:46:14;94326.36;;;19.30;35.92
6851;BME280;3464;42.728;23.296;2024-03-25T08:48:40;94326.68;;;21.53;33.35
6851;BME280;3464;42.728;23.296;2024-03-25T08:51:07;94331.08;;;21.33;32.86
6851;BME280;3464;42.728;23.296;2024-03-25T08:53:33;94328.20;;;20.57;33.53
6851;BME280;3464;42.728;23.296;2024-03-25T08:56:00;94333.86;;;21.37;32.63
6851;BME280;3464;42.728;23.296;2024-03-25T08:58:26;94322.39;;;21.36;32.71
6851;BME280;3464;42.728;23.296;2024-03-25T09:00:53;94331.42;;;19.73;34.60
6851;BME280;3464;42.728;23.296;2024-03-25T09:03:20;94329.98;;;21.02;33.74
6851;BME280;3464;42.728;23.296;2024-03-25T09:05:46;94331.91;;;22.20;32.46
6851;BME280;3464;42.728;23.296;2024-03-25T09:08:13;94342.96;;;20.70;34.15
6851;BME280;3464;42.728;23.296;2024-03-25T09:10:42;94336.11;;;20.23;34.48
6851;BME280;3464;42.728;23.296;2024-03-25T09:13:12;94345.44;;;21.27;33.78
6851;BME280;3464;42.728;23.296;2024-03-25T09:15:39;94343.08;;;19.99;34.52
6851;BME280;3464;42.728;23.296;2024-03-25T09:18:06;94345.74;;;19.87;34.79
6851;BME280;3464;42.728;23.296;2024-03-25T09:20:32;94343.02;;;19.70;35.54
6851;BME280;3464;42.728;23.296;2024-03-25T09:22:59;94337.17;;;21.04;33.55
6851;BME280;3464;42.728;23.296;2024-03-25T09:25:25;94343.63;;;20.36;34.46
6851;BME280;3464;42.728;23.296;2024-03-25T09:27:52;94343.54;;;22.17;32.99
6851;BME280;3464;42.728;23.296;2024-03-25T09:30:19;94337.27;;;21.63;32.77
6851;BME280;3464;42.728;23.296;2024-03-25T09:32:46;94348.95;;;20.11;34.53
6851;BME280;3464;42.728;23.296;2024-03-25T09:35:13;94349.51;;;19.98;34.54
6851;BME280;3464;42.728;23.296;2024-03-25T09:37:40;94354.08;;;19.91;34.14
6851;BME280;3464;42.728;23.296;2024-03-25T09:40:09;94356.88;;;19.43;34.84
6851;BME280;3464;42.728;23.296;2024-03-25T09:42:52;94347.12;;;20.34;34.30
6851;BME280;3464;42.728;23.296;2024-03-25T09:45:22;94343.78;;;20.80;33.95
6851;BME280;3464;42.728;23.296;2024-03-25T09:47:49;94343.37;;;20.61;33.95
6851;BME280;3464;42.728;23.296;2024-03-25T09:50:19;94351.34;;;20.16;34.57
6851;BME280;3464;42.728;23.296;2024-03-25T09:52:46;94340.22;;;21.12;33.43
6851;BME280;3464;42.728;23.296;2024-03-25T09:55:13;94346.61;;;20.55;33.31
6851;BME280;3464;42.728;23.296;2024-03-25T09:57:46;94344.92;;;20.83;33.14
6851;BME280;3464;42.728;23.296;2024-03-25T10:00:15;94348.55;;;20.87;33.29
6851;BME280;3464;42.728;23.296;2024-03-25T10:02:44;94351.50;;;21.52;31.92
6851;BME280;3464;42.728;23.296;2024-03-25T10:05:12;94350.84;;;20.65;32.88
6851;BME280;3464;42.728;23.296;2024-03-25T10:07:40;94354.63;;;21.76;32.10
6851;BME280;3464;42.728;23.296;2024-03-25T10:10:08;94355.76;;;20.22;33.30
6851;BME280;3464;42.728;23.296;2024-03-25T10:12:35;94354.88;;;20.12;33.80
6851;BME280;3464;42.728;23.296;2024-03-25T10:15:02;94351.55;;;21.68;32.65
6851;BME280;3464;42.728;23.296;2024-03-25T10:17:30;94346.88;;;21.33;32.52
6851;BME280;3464;42.728;23.296;2024-03-25T10:19:59;94341.83;;;21.92;32.53
6851;BME280;3464;42.728;23.296;2024-03-25T10:22:28;94346.08;;;21.04;32.33
6851;BME280;3464;42.728;23.296;2024-03-25T10:24:57;94341.74;;;21.42;32.52
6851;BME280;3464;42.728;23.296;2024-03-25T10:27:24;94347.66;;;21.60;31.64
6851;BME280;3464;42.728;23.296;2024-03-25T10:29:53;94339.63;;;21.50;31.76
6851;BME280;3464;42.728;23.296;2024-03-25T10:32:21;94345.01;;;21.62;31.18
6851;BME280;3464;42.728;23.296;2024-03-25T10:34:47;94330.59;;;22.69;30.33
6851;BME280;3464;42.728;23.296;2024-03-25T10:37:15;94332.42;;;23.90;29.48
6851;BME280;3464;42.728;23.296;2024-03-25T10:39:47;94341.47;;;20.93;31.03
6851;BME280;3464;42.728;23.296;2024-03-25T10:42:16;94345.97;;;22.12;30.69
6851;BME280;3464;42.728;23.296;2024-03-25T10:44:42;94336.26;;;21.05;31.59
6851;BME280;3464;42.728;23.296;2024-03-25T10:47:10;94341.46;;;22.66;30.25
6851;BME280;3464;42.728;23.296;2024-03-25T10:49:38;94336.75;;;21.91;30.92
6851;BME280;3464;42.728;23.296;2024-03-25T10:52:04;94329.38;;;21.33;31.57
6851;BME280;3464;42.728;23.296;2024-03-25T10:54:31;94333.66;;;20.97;30.78
6851;BME280;3464;42.728;23.296;2024-03-25T10:56:58;94345.91;;;21.08;30.85
6851;BME280;3464;42.728;23.296;2024-03-25T10:59:26;94346.92;;;19.68;32.20
6851;BME280;3464;42.728;23.296;2024-03-25T11:01:51;94349.56;;;20.27;31.87
6851;BME280;3464;42.728;23.296;2024-03-25T11:04:18;94335.91;;;21.21;31.06
6851;BME280;3464;42.728;23.296;2024-03-25T11:06:44;94330.52;;;21.44;31.61
6851;BME280;3464;42.728;23.296;2024-03-25T11:09:11;94328.23;;;22.08;30.71
6851;BME280;3464;42.728;23.296;2024-03-25T11:11:37;94331.09;;;20.00;31.89
6851;BME280;3464;42.728;23.296;2024-03-25T11:14:14;94329.71;;;20.33;33.32
6851;BME280;3464;42.728;23.296;2024-03-25T11:16:38;94332.05;;;19.98;33.26
6851;BME280;3464;42.728;23.296;2024-03-25T11:19:13;94334.47;;;20.97;32.75
6851;BME280;3464;42.728;23.296;2024-03-25T11:21:41;94343.16;;;20.84;33.23
6851;BME280;3464;42.728;23.296;2024-03-25T11:24:08;94352.02;;;19.79;35.38
6851;BME280;3464;42.728;23.296;2024-03-25T11:26:40;94352.62;;;20.05;33.70
6851;BME280;3464;42.728;23.296;2024-03-25T11:29:07;94359.07;;;18.98;35.25
6851;BME280;3464;42.728;23.296;2024-03-25T11:31:38;94366.06;;;19.26;35.48
6851;BME280;3464;42.728;23.296;2024-03-25T11:34:05;94359.86;;;20.15;34.81
6851;BME280;3464;42.728;23.296;2024-03-25T11:36:34;94357.23;;;20.18;34.48
6851;BME280;3464;42.728;23.296;2024-03-25T11:39:01;94354.85;;;20.23;34.08
6851;BME280;3464;42.728;23.296;2024-03-25T11:41:30;94359.97;;;19.18;35.96
6851;BME280;3464;42.728;23.296;2024-03-25T11:44:09;94364.22;;;20.03;35.60
6851;BME280;3464;42.728;23.296;2024-03-25T11:46:41;94364.41;;;21.05;34.59
6851;BME280;3464;42.728;23.296;2024-03-25T11:49:16;94368.98;;;21.52;33.76
6851;BME280;3464;42.728;23.296;2024-03-25T11:51:49;94361.73;;;20.01;34.00
6851;BME280;3464;42.728;23.296;2024-03-25T11:54:22;94356.97;;;20.81;33.60
6851;BME280;3464;42.728;23.296;2024-03-25T11:56:52;94359.30;;;21.67;32.87
6851;BME280;3464;42.728;23.296;2024-03-25T11:59:19;94359.45;;;21.46;32.79
6851;BME280;3464;42.728;23.296;2024-03-25T12:01:47;94358.16;;;21.73;32.33
6851;BME280;3464;42.728;23.296;2024-03-25T12:04:18;94367.80;;;20.29;33.76
6851;BME280;3464;42.728;23.296;2024-03-25T12:06:44;94361.18;;;20.82;33.56
6851;BME280;3464;42.728;23.296;2024-03-25T12:09:11;94356.73;;;21.05;32.92
6851;BME280;3464;42.728;23.296;2024-03-25T12:11:43;94371.73;;;21.03;32.78
6851;BME280;3464;42.728;23.296;2024-03-25T12:14:10;94370.17;;;20.03;33.51
6851;BME280;3464;42.728;23.296;2024-03-25T12:16:38;94367.45;;;20.84;33.35
6851;BME280;3464;42.728;23.296;2024-03-25T12:19:05;94355.66;;;21.09;33.05
6851;BME280;3464;42.728;23.296;2024-03-25T12:21:32;94361.44;;;20.19;33.53
6851;BME280;3464;42.728;23.296;2024-03-25T12:24:03;94364.30;;;19.70;33.80
6851;BME280;3464;42.728;23.296;2024-03-25T12:26:34;94369.71;;;19.83;33.63
6851;BME280;3464;42.728;23.296;2024-03-25T12:29:01;94357.58;;;20.09;33.20
6851;BME280;3464;42.728;23.296;2024-03-25T12:53:38;94383.86;;;20.32;32.68
6851;BME280;3464;42.728;23.296;2024-03-25T12:56:08;94383.92;;;19.59;32.71
6851;BME280;3464;42.728;23.296;2024-03-25T12:58:41;94342.71;;;20.02;31.90
6851;BME280;3464;42.728;23.296;2024-03-25T13:01:08;94391.18;;;19.14;32.54
6851;BME280;3464;42.728;23.296;2024-03-25T13:03:38;94386.02;;;20.41;31.84
6851;BME280;3464;42.728;23.296;2024-03-25T13:06:06;94374.45;;;21.18;31.22
6851;BME280;3464;42.728;23.296;2024-03-25T13:08:32;94366.75;;;20.62;32.12
6851;BME280;3464;42.728;23.296;2024-03-25T13:11:03;94383.00;;;20.12;33.33
6851;BME280;3464;42.728;23.296;2024-03-25T13:13:35;94379.38;;;21.40;32.12
6851;BME280;3464;42.728;23.296;2024-03-25T13:16:02;94385.20;;;20.88;32.08
6851;BME280;3464;42.728;23.296;2024-03-25T13:18:29;94386.65;;;21.84;30.72
6851;BME280;3464;42.728;23.296;2024-03-25T13:20:56;94382.60;;;21.08;31.54
6851;BME280;3464;42.728;23.296;2024-03-25T13:23:22;94377.88;;;21.54;31.10
6851;BME280;3464;42.728;23.296;2024-03-25T13:25:49;94382.77;;;22.02;30.64
6851;BME280;3464;42.728;23.296;2024-03-25T13:28:15;94380.86;;;22.81;29.89
6851;BME280;3464;42.728;23.296;2024-03-25T13:30:42;94382.60;;;21.80;31.02
6851;BME280;3464;42.728;23.296;2024-03-25T13:33:09;94382.63;;;22.22;29.97
6851;BME280;3464;42.728;23.296;2024-03-25T13:35:36;94380.46;;;21.88;29.69
6851;BME280;3464;42.728;23.296;2024-03-25T13:38:02;94391.84;;;22.00;29.27
6851;BME280;3464;42.728;23.296;2024-03-25T13:40:29;94395.23;;;22.35;28.78
6851;BME280;3464;42.728;23.296;2024-03-25T13:42:57;94389.96;;;22.86;29.03
6851;BME280;3464;42.728;23.296;2024-03-25T13:45:23;94408.70;;;22.38;28.89
6851;BME280;3464;42.728;23.296;2024-03-25T13:47:50;94401.59;;;20.93;29.55
6851;BME280;3464;42.728;23.296;2024-03-25T13:50:16;94405.64;;;21.53;29.50
6851;BME280;3464;42.728;23.296;2024-03-25T13:52:43;94436.08;;;20.36;32.70
6851;BME280;3464;42.728;23.296;2024-03-25T13:55:10;94420.20;;;19.87;33.34